createdAt,value
2022-11-22T00:02:22.060Z,100424.47
2022-11-22T00:04:52.435Z,100428.72
2022-11-22T00:07:22.704Z,100428.81
2022-11-22T00:09:52.993Z,100400.22
2022-11-22T00:12:26.212Z,100415.06
2022-11-22T00:14:57.104Z,100411.63
2022-11-22T00:17:27.459Z,100429.72
2022-11-22T00:19:57.722Z,100426.34
2022-11-22T00:22:28.036Z,100404.59
2022-11-22T00:24:58.566Z,100419.41
2022-11-22T00:27:28.855Z,100430.72
2022-11-22T00:29:58.954Z,100416.03
2022-11-22T00:32:29.167Z,100403.94
2022-11-22T00:34:59.585Z,100384.94
2022-11-22T00:37:29.831Z,100393.56
2022-11-22T00:40:00.057Z,100375.34
2022-11-22T00:42:30.267Z,100422.16
2022-11-22T00:45:00.402Z,100417.00
2022-11-22T00:47:30.571Z,100434.22
2022-11-22T00:50:00.616Z,100408.16
2022-11-22T00:52:30.861Z,100424.75
2022-11-22T00:55:00.980Z,100433.41
2022-11-22T00:57:31.066Z,100416.97
2022-11-22T01:00:01.245Z,100394.56
2022-11-22T01:02:31.401Z,100424.78
2022-11-22T01:05:01.686Z,100413.50
2022-11-22T01:07:31.993Z,100429.16
2022-11-22T01:10:02.180Z,100406.66
2022-11-22T01:12:32.390Z,100440.31
2022-11-22T01:15:03.155Z,100436.78
2022-11-22T01:17:33.356Z,100439.44
2022-11-22T01:20:04.190Z,100422.13
2022-11-22T01:22:34.440Z,100444.63
2022-11-22T01:25:04.937Z,100414.41
2022-11-22T01:27:35.285Z,100437.78
2022-11-22T01:30:06.159Z,100424.94
2022-11-22T01:32:36.363Z,100419.75
2022-11-22T01:35:06.955Z,100387.50
2022-11-22T01:37:37.197Z,100426.56
2022-11-22T01:40:08.448Z,100432.59
2022-11-22T01:42:57.244Z,100443.81
2022-11-22T01:45:30.401Z,100442.13
2022-11-22T01:48:17.110Z,100447.25
2022-11-22T01:50:51.880Z,100443.78
2022-11-22T01:53:36.606Z,100446.34
2022-11-22T01:56:12.338Z,100457.53
2022-11-22T01:58:44.971Z,100428.94
2022-11-22T02:01:15.137Z,100452.44
2022-11-22T02:03:49.751Z,100396.97
2022-11-22T02:06:20.713Z,100416.97
2022-11-22T02:09:07.795Z,100449.81
2022-11-22T02:11:42.057Z,100458.41
2022-11-22T02:14:12.838Z,100435.97
2022-11-22T02:16:45.841Z,100449.88
2022-11-22T02:19:28.867Z,100441.13
2022-11-22T02:22:09.363Z,100458.44
2022-11-22T02:24:57.322Z,100443.81
2022-11-22T02:27:27.608Z,100436.06
2022-11-22T02:29:57.750Z,100435.25
2022-11-22T02:32:27.937Z,100448.16
2022-11-22T02:34:57.984Z,100451.63
2022-11-22T02:37:31.641Z,100428.16
2022-11-22T02:40:14.989Z,100435.16
2022-11-22T02:42:50.879Z,100430.88
2022-11-22T02:45:21.271Z,100434.50
2022-11-22T02:47:51.660Z,100424.78
2022-11-22T02:50:21.789Z,100417.97
2022-11-22T02:52:51.883Z,100418.91
2022-11-22T02:55:21.997Z,100416.19
2022-11-22T02:57:52.183Z,100424.09
2022-11-22T03:00:23.173Z,100429.31
2022-11-22T03:02:53.466Z,100428.31
2022-11-22T03:05:23.812Z,100441.31
2022-11-22T03:07:54.103Z,100427.38
2022-11-22T03:10:24.395Z,100435.22
2022-11-22T03:12:54.622Z,100443.81
2022-11-22T03:15:25.985Z,100431.69
2022-11-22T03:18:01.010Z,100434.41
2022-11-22T03:20:33.343Z,100440.31
2022-11-22T03:23:03.522Z,100442.06
2022-11-22T03:25:36.578Z,100440.41
2022-11-22T03:28:06.784Z,100405.81
2022-11-22T03:30:40.762Z,100416.22
2022-11-22T03:33:19.489Z,100398.06
2022-11-22T03:35:50.808Z,100376.34
2022-11-22T03:38:23.020Z,100416.31
2022-11-22T03:40:53.137Z,100391.03
2022-11-22T03:43:23.395Z,100399.00
2022-11-22T03:45:53.555Z,100429.38
2022-11-22T03:48:23.736Z,100429.22
2022-11-22T03:50:53.905Z,100431.19
2022-11-22T03:53:24.121Z,100431.13
2022-11-22T03:55:54.353Z,100434.50
2022-11-22T03:58:24.513Z,100441.41
2022-11-22T04:00:54.629Z,100438.03
2022-11-22T04:03:25.186Z,100432.03
2022-11-22T04:05:55.351Z,100426.00
2022-11-22T04:08:26.023Z,100432.09
2022-11-22T04:10:56.640Z,100429.38
2022-11-22T04:13:46.718Z,100432.13
2022-11-22T04:16:16.830Z,100417.38
2022-11-22T04:18:46.990Z,100429.47
2022-11-22T04:21:35.084Z,100437.31
2022-11-22T04:24:43.292Z,100433.91
2022-11-22T04:27:13.511Z,100426.00
2022-11-22T04:29:43.715Z,100414.72
2022-11-22T04:32:32.410Z,100423.47
2022-11-22T04:35:02.713Z,100436.41
2022-11-22T04:37:33.059Z,100407.84
2022-11-22T04:40:04.492Z,100433.03
2022-11-22T04:42:53.196Z,100420.91
2022-11-22T04:45:23.443Z,100433.03
2022-11-22T04:47:59.437Z,100434.78
2022-11-22T04:50:49.687Z,100429.59
2022-11-22T04:53:19.936Z,100384.53
2022-11-22T04:55:50.100Z,100438.22
2022-11-22T04:58:20.523Z,100439.09
2022-11-22T05:00:52.437Z,100425.00
2022-11-22T05:03:22.845Z,100433.69
2022-11-22T05:05:53.001Z,100418.09
2022-11-22T05:08:23.132Z,100439.75
2022-11-22T05:10:59.717Z,100413.66
2022-11-22T05:13:31.262Z,100456.28
2022-11-22T05:16:03.545Z,100453.69
2022-11-22T05:18:33.907Z,100451.16
2022-11-22T05:21:14.717Z,100432.09
2022-11-22T05:23:56.819Z,100443.38
2022-11-22T05:26:32.878Z,100447.78
2022-11-22T05:29:06.177Z,100438.13
2022-11-22T05:31:37.894Z,100455.50
2022-11-22T05:34:08.188Z,100438.09
2022-11-22T05:36:38.307Z,100403.38
2022-11-22T05:39:08.476Z,100413.84
2022-11-22T05:41:38.681Z,100452.78
2022-11-22T05:44:09.004Z,100438.75
2022-11-22T05:46:39.131Z,100481.06
2022-11-22T05:49:09.249Z,100474.91
2022-11-22T05:51:39.444Z,100480.09
2022-11-22T05:54:09.689Z,100477.59
2022-11-22T05:56:40.807Z,100472.50
2022-11-22T05:59:11.097Z,100482.00
2022-11-22T06:01:41.572Z,100481.13
2022-11-22T06:04:12.029Z,100483.63
2022-11-22T06:06:42.353Z,100468.00
2022-11-22T06:09:12.518Z,100482.81
2022-11-22T06:11:42.643Z,100472.41
2022-11-22T06:14:12.893Z,100461.91
2022-11-22T06:16:43.001Z,100495.66
2022-11-22T06:19:13.463Z,100498.25
2022-11-22T06:21:43.825Z,100501.66
2022-11-22T06:24:13.982Z,100492.91
2022-11-22T06:26:44.239Z,100516.34
2022-11-22T06:29:14.429Z,100474.63
2022-11-22T06:31:44.678Z,100497.22
2022-11-22T06:34:14.938Z,100480.72
2022-11-22T06:36:46.628Z,100495.47
2022-11-22T06:39:16.957Z,100467.81
2022-11-22T06:41:47.169Z,100480.75
2022-11-22T06:44:17.297Z,100528.44
2022-11-22T06:46:47.804Z,100499.75
2022-11-22T06:49:18.069Z,100528.38
2022-11-22T06:51:48.229Z,100535.28
2022-11-22T06:54:18.431Z,100543.06
2022-11-22T06:56:48.638Z,100539.56
2022-11-22T06:59:18.839Z,100515.28
2022-11-22T07:01:49.082Z,100538.66
2022-11-22T07:04:19.659Z,100534.28
2022-11-22T07:06:49.785Z,100548.34
2022-11-22T07:09:20.053Z,100539.59
2022-11-22T07:11:50.661Z,100537.00
2022-11-22T07:14:21.039Z,100539.72
2022-11-22T07:16:58.850Z,100540.63
2022-11-22T07:19:29.333Z,100544.09
2022-11-22T07:21:59.585Z,100514.72
2022-11-22T07:24:30.557Z,100540.78
2022-11-22T07:27:00.784Z,100547.69
2022-11-22T07:29:31.068Z,100545.16
2022-11-22T07:32:01.578Z,100541.59
2022-11-22T07:34:31.732Z,100525.22
2022-11-22T07:37:07.601Z,100536.53
2022-11-22T07:39:39.209Z,100511.41
2022-11-22T07:42:09.337Z,100520.81
2022-11-22T07:44:39.439Z,100535.53
2022-11-22T07:47:09.613Z,100545.91
2022-11-22T07:49:40.127Z,100559.78
2022-11-22T07:52:10.250Z,100530.41
2022-11-22T07:54:40.344Z,100566.03
2022-11-22T07:57:10.438Z,100532.16
2022-11-22T07:59:40.671Z,100571.22
2022-11-22T08:02:14.334Z,100546.88
2022-11-22T08:04:44.619Z,100545.97
2022-11-22T08:07:14.998Z,100534.69
2022-11-22T08:09:46.383Z,100564.16
2022-11-22T08:12:17.573Z,100579.75
2022-11-22T08:14:47.803Z,100573.00
2022-11-22T08:17:18.174Z,100560.78
2022-11-22T08:19:50.418Z,100520.94
2022-11-22T08:22:20.687Z,100551.38
2022-11-22T08:24:51.132Z,100569.75
2022-11-22T08:27:21.365Z,100526.44
2022-11-22T08:29:51.583Z,100483.13
2022-11-22T08:32:21.752Z,100512.66
2022-11-22T08:34:52.538Z,100562.16
2022-11-22T08:37:22.771Z,100482.34
2022-11-22T08:39:53.088Z,100557.91
2022-11-22T08:42:24.028Z,100519.75
2022-11-22T08:44:54.316Z,100555.28
2022-11-22T08:47:24.479Z,100527.25
2022-11-22T08:49:54.631Z,100600.19
2022-11-22T08:52:24.892Z,100538.59
2022-11-22T08:54:54.971Z,100607.19
2022-11-22T08:57:25.209Z,100614.00
2022-11-22T08:59:55.301Z,100615.63
2022-11-22T09:02:25.607Z,100619.97
2022-11-22T09:04:55.900Z,100609.72
2022-11-22T09:10:19.094Z,100635.59
2022-11-22T09:12:49.259Z,100618.31
2022-11-22T09:15:19.572Z,100606.19
2022-11-22T09:17:49.710Z,100620.16
2022-11-22T09:20:19.891Z,100620.09
2022-11-22T09:22:50.104Z,100637.38
2022-11-22T09:25:20.299Z,100617.50
2022-11-22T09:27:50.355Z,100615.78
2022-11-22T09:30:43.576Z,100630.56
2022-11-22T09:33:27.352Z,100621.13
2022-11-22T09:36:12.968Z,100593.41
2022-11-22T09:38:53.928Z,100566.41
2022-11-22T09:42:27.657Z,100612.53
2022-11-22T09:45:31.615Z,100620.44
2022-11-22T09:48:18.641Z,100587.56
2022-11-22T09:51:30.735Z,100608.59
2022-11-22T09:54:13.640Z,100612.94
2022-11-22T09:56:50.889Z,100606.97
2022-11-22T09:59:35.591Z,100558.50
2022-11-22T10:05:25.666Z,100579.50
2022-11-22T10:08:23.344Z,100559.41
2022-11-22T10:11:03.361Z,100555.84
2022-11-22T10:14:03.200Z,100579.28
2022-11-22T10:16:44.305Z,100577.75
2022-11-22T10:19:24.255Z,100571.78
2022-11-22T10:21:54.523Z,100589.97
2022-11-22T10:24:24.731Z,100556.22
2022-11-22T10:27:01.091Z,100577.94
2022-11-22T10:29:59.747Z,100567.69
2022-11-22T10:32:42.538Z,100584.13
2022-11-22T10:35:26.844Z,100578.88
2022-11-22T10:39:06.865Z,100584.97
2022-11-22T10:41:49.631Z,100586.66
2022-11-22T10:44:25.752Z,100589.28
2022-11-22T10:47:29.137Z,100551.94
2022-11-22T10:50:24.430Z,100593.56
2022-11-22T10:53:36.106Z,100572.75
2022-11-22T10:56:18.206Z,100584.03
2022-11-22T10:59:28.805Z,100596.34
2022-11-22T11:02:40.665Z,100602.34
2022-11-22T11:05:16.730Z,100572.84
2022-11-22T11:07:56.782Z,100602.22
2022-11-22T11:10:39.719Z,100612.66
2022-11-22T11:13:23.613Z,100615.25
2022-11-22T11:15:56.741Z,100581.50
2022-11-22T11:18:57.927Z,100618.78
2022-11-22T11:21:28.517Z,100578.06
2022-11-22T11:23:58.721Z,100492.88
2022-11-22T11:26:31.773Z,100499.06
2022-11-22T11:29:17.349Z,100597.16
2022-11-22T11:32:12.562Z,100625.81
2022-11-22T11:34:53.665Z,100587.84
2022-11-22T11:37:33.351Z,100602.72
2022-11-22T11:40:25.529Z,100593.31
2022-11-22T11:43:17.003Z,100589.09
2022-11-22T11:45:47.961Z,100570.06
2022-11-22T11:48:38.527Z,100566.75
2022-11-22T11:51:18.818Z,100573.66
2022-11-22T11:53:57.739Z,100547.63
2022-11-22T11:56:48.714Z,100532.75
2022-11-22T11:59:21.982Z,100512.84
2022-11-22T12:02:09.532Z,100528.53
2022-11-22T12:05:01.276Z,100567.56
2022-11-22T12:07:34.555Z,100569.28
2022-11-22T12:10:32.926Z,100534.56
2022-11-22T12:13:17.785Z,100544.19
2022-11-22T12:16:09.930Z,100558.13
2022-11-22T12:18:53.236Z,100553.78
2022-11-22T12:21:47.876Z,100524.22
2022-11-22T12:24:48.841Z,100555.59
2022-11-22T12:27:18.078Z,100510.44
2022-11-22T12:29:48.650Z,100521.63
2022-11-22T12:32:40.071Z,100428.94
2022-11-22T12:35:19.063Z,100427.16
2022-11-22T12:37:57.238Z,100532.06
2022-11-22T12:40:35.679Z,100472.13
2022-11-22T12:43:16.855Z,100490.41
2022-11-22T12:45:52.975Z,100426.22
2022-11-22T12:48:33.517Z,100509.50
2022-11-22T12:51:09.517Z,100485.13
2022-11-22T12:53:43.993Z,100424.41
2022-11-22T12:56:45.095Z,100450.28
2022-11-22T12:59:28.407Z,100509.19
2022-11-22T13:02:04.574Z,100569.84
2022-11-22T13:04:56.435Z,100565.34
2022-11-22T13:07:35.976Z,100579.22
2022-11-22T13:10:22.123Z,100489.75
2022-11-22T13:12:54.680Z,100520.09
2022-11-22T13:15:31.510Z,100493.31
2022-11-22T13:18:01.861Z,100554.72
2022-11-22T13:20:42.980Z,100581.72
2022-11-22T13:23:34.345Z,100580.00
2022-11-22T13:26:15.142Z,100566.88
2022-11-22T13:28:46.962Z,100532.09
2022-11-22T13:31:19.814Z,100533.88
2022-11-22T13:33:56.455Z,100477.56
2022-11-22T13:36:29.547Z,100611.97
2022-11-22T13:39:04.143Z,100553.88
2022-11-22T13:41:34.442Z,100592.09
2022-11-22T13:44:24.267Z,100561.56
2022-11-22T13:47:00.667Z,100578.13
2022-11-22T13:49:48.263Z,100603.25
2022-11-22T13:52:19.824Z,100611.81
2022-11-22T13:54:53.413Z,100612.63
2022-11-22T13:57:34.761Z,100589.97
2022-11-22T14:00:21.782Z,100549.28
2022-11-22T14:03:13.534Z,100602.16
2022-11-22T14:05:57.410Z,100550.84
2022-11-22T14:08:37.589Z,100598.69
2022-11-22T14:11:25.566Z,100590.06
2022-11-22T14:14:21.662Z,100582.25
2022-11-22T14:17:02.216Z,100590.94
2022-11-22T14:20:01.221Z,100583.19
2022-11-22T14:22:42.365Z,100584.09
2022-11-22T14:25:38.760Z,100563.06
2022-11-22T14:28:09.470Z,100589.78
2022-11-22T14:30:54.259Z,100597.47
2022-11-22T14:33:26.917Z,100580.97
2022-11-22T14:36:06.194Z,100609.50
2022-11-22T14:38:40.586Z,100558.34
2022-11-22T14:41:29.218Z,100607.78
2022-11-22T14:44:09.523Z,100590.44
2022-11-22T14:46:55.906Z,100598.16
2022-11-22T14:49:33.446Z,100601.50
2022-11-22T14:52:11.995Z,100586.84
2022-11-22T14:54:49.111Z,100564.28
2022-11-22T14:57:27.490Z,100600.81
2022-11-22T15:00:19.484Z,100592.09
2022-11-22T15:02:58.460Z,100612.88
2022-11-22T15:09:11.524Z,100600.66
2022-11-22T15:09:21.749Z,100610.31
2022-11-22T15:11:53.128Z,100579.88
2022-11-22T15:14:52.475Z,100610.19
2022-11-22T15:59:47.066Z,100576.81
2022-11-22T16:02:22.585Z,100632.25
2022-11-22T16:06:08.284Z,100635.78
2022-11-22T16:07:49.974Z,100600.19
2022-11-22T16:10:37.285Z,100625.41
2022-11-22T16:13:20.286Z,100626.97
2022-11-22T16:16:21.852Z,100627.88
2022-11-22T16:18:54.685Z,100618.31
2022-11-22T16:21:30.941Z,100633.13
2022-11-22T16:24:18.009Z,100601.91
2022-11-22T16:27:00.545Z,100591.53
2022-11-22T16:29:33.427Z,100577.63
2022-11-22T16:32:10.621Z,100634.88
2022-11-22T16:34:51.638Z,100580.94
2022-11-22T16:37:37.875Z,100651.22
2022-11-22T16:40:21.400Z,100637.44
2022-11-22T16:43:21.318Z,100513.34
2022-11-22T16:45:52.868Z,100616.72
2022-11-22T16:48:33.465Z,100595.81
2022-11-22T16:51:06.259Z,100624.31
2022-11-22T16:53:45.269Z,100633.88
2022-11-22T16:56:21.081Z,100632.22
2022-11-22T16:58:52.910Z,100595.00
2022-11-22T17:01:26.894Z,100628.81
2022-11-22T17:03:57.875Z,100602.00
2022-11-22T17:06:29.735Z,100622.81
2022-11-22T17:09:00.855Z,100564.75
2022-11-22T17:11:32.241Z,100617.63
2022-11-22T17:14:02.354Z,100576.03
2022-11-22T17:16:32.557Z,100603.91
2022-11-22T17:19:02.770Z,100594.31
2022-11-22T17:21:37.755Z,100583.97
2022-11-22T17:24:20.869Z,100606.53
2022-11-22T17:26:51.050Z,100614.19
2022-11-22T17:32:14.576Z,100615.06
2022-11-22T17:34:44.928Z,100620.19
2022-11-22T17:37:15.435Z,100620.19
2022-11-22T17:39:45.601Z,100610.63
2022-11-22T17:42:17.593Z,100609.72
2022-11-22T17:44:47.725Z,100625.22
2022-11-22T17:47:17.861Z,100628.66
2022-11-22T17:49:48.751Z,100630.41
2022-11-22T17:52:19.041Z,100639.00
2022-11-22T17:54:49.164Z,100640.75
2022-11-22T17:57:19.363Z,100624.97
2022-11-22T17:59:49.583Z,100636.31
2022-11-22T18:02:20.780Z,100640.69
2022-11-22T18:05:01.182Z,100632.84
2022-11-22T18:07:32.254Z,100630.22
2022-11-22T18:10:08.275Z,100644.91
2022-11-22T18:12:42.212Z,100640.50
2022-11-22T18:15:12.733Z,100651.72
2022-11-22T18:17:42.849Z,100649.13
2022-11-22T18:20:14.140Z,100626.69
2022-11-22T18:22:44.313Z,100637.09
2022-11-22T18:25:14.471Z,100639.78
2022-11-22T18:27:44.753Z,100638.94
2022-11-22T18:30:15.414Z,100635.31
2022-11-22T18:32:45.704Z,100636.28
2022-11-22T18:35:16.094Z,100621.53
2022-11-22T18:37:46.529Z,100623.31
2022-11-22T18:40:16.738Z,100611.09
2022-11-22T18:42:50.614Z,100637.16
2022-11-22T18:45:22.576Z,100596.19
2022-11-22T18:47:52.631Z,100614.59
2022-11-22T18:50:22.906Z,100603.44
2022-11-22T18:52:53.546Z,100623.50
2022-11-22T18:55:23.713Z,100610.34
2022-11-22T18:57:53.907Z,100613.03
2022-11-22T19:00:24.155Z,100607.75
2022-11-22T19:02:54.565Z,100639.13
2022-11-22T19:05:24.825Z,100604.41
2022-11-22T19:07:54.993Z,100641.69
2022-11-22T19:10:25.298Z,100621.75
2022-11-22T19:12:55.508Z,100625.13
2022-11-22T19:15:27.100Z,100619.97
2022-11-22T19:17:58.908Z,100643.41
2022-11-22T19:20:54.112Z,100626.84
2022-11-22T19:23:22.132Z,100640.69
2022-11-22T19:25:52.480Z,100624.88
2022-11-22T19:28:27.421Z,100640.38
2022-11-22T19:31:02.541Z,100658.69
2022-11-22T19:33:32.758Z,100605.72
2022-11-22T19:36:05.992Z,100598.88
2022-11-22T19:38:36.179Z,100641.38
2022-11-22T19:41:14.199Z,100653.63
2022-11-22T19:43:45.245Z,100657.88
2022-11-22T19:46:16.103Z,100652.56
2022-11-22T19:48:57.018Z,100667.25
2022-11-22T19:51:29.826Z,100641.94
2022-11-22T19:54:04.064Z,100654.94
2022-11-22T19:56:36.954Z,100674.13
2022-11-22T19:59:10.004Z,100659.28
2022-11-22T20:01:40.386Z,100671.44
2022-11-22T20:04:13.274Z,100684.31
2022-11-22T20:06:48.597Z,100659.13
2022-11-22T20:09:21.127Z,100659.94
2022-11-22T20:11:53.905Z,100693.00
2022-11-22T20:14:23.991Z,100686.13
2022-11-22T20:16:54.129Z,100656.56
2022-11-22T20:19:24.215Z,100660.13
2022-11-22T20:21:54.458Z,100656.63
2022-11-22T20:24:25.630Z,100672.22
2022-11-22T20:26:55.802Z,100669.59
2022-11-22T20:29:25.981Z,100652.19
2022-11-22T20:31:56.981Z,100679.00
2022-11-22T20:34:29.988Z,100667.56
2022-11-22T20:37:11.184Z,100696.28
2022-11-22T20:39:47.306Z,100688.34
2022-11-22T20:42:34.857Z,100648.53
2022-11-22T20:45:08.701Z,100679.00
2022-11-22T20:47:39.060Z,100698.94
2022-11-22T20:50:09.404Z,100703.25
2022-11-22T20:52:39.616Z,100690.16
2022-11-22T20:55:10.662Z,100681.41
2022-11-22T20:57:40.808Z,100691.56
2022-11-22T21:00:22.284Z,100653.44
2022-11-22T21:03:01.786Z,100691.56
2022-11-22T21:05:31.919Z,100701.16
2022-11-22T21:08:05.214Z,100715.84
2022-11-22T21:10:35.713Z,100673.22
2022-11-22T21:13:05.982Z,100720.19
2022-11-22T21:15:36.365Z,100717.66
2022-11-22T21:18:24.861Z,100680.41
2022-11-22T21:21:02.865Z,100699.41
2022-11-22T21:23:33.449Z,100695.06
2022-11-22T21:26:06.184Z,100720.19
2022-11-22T21:28:38.834Z,100718.44
2022-11-22T21:31:18.624Z,100674.25
2022-11-22T21:33:59.248Z,100676.00
2022-11-22T21:36:30.572Z,100718.56
2022-11-22T21:39:00.896Z,100622.84
2022-11-22T21:41:39.750Z,100581.13
2022-11-22T21:44:12.015Z,100649.56
2022-11-22T21:46:44.184Z,100624.28
2022-11-22T21:49:15.623Z,100719.13
2022-11-22T21:51:46.356Z,100726.00
2022-11-22T21:54:23.346Z,100727.59
2022-11-22T21:57:03.073Z,100621.75
2022-11-22T21:59:44.817Z,100696.28
2022-11-22T22:02:18.059Z,100610.41
2022-11-22T22:04:48.200Z,100708.69
2022-11-22T22:07:44.782Z,100704.44
2022-11-22T22:10:09.168Z,100684.34
2022-11-22T22:12:42.601Z,100657.41
2022-11-22T22:15:13.387Z,100701.78
2022-11-22T22:17:43.608Z,100656.75
2022-11-22T22:20:13.853Z,100700.25
2022-11-22T22:22:43.953Z,100711.50
2022-11-22T22:25:14.373Z,100656.81
2022-11-22T22:27:44.952Z,100679.41
2022-11-22T22:30:16.201Z,100657.72
2022-11-22T22:32:46.378Z,100654.13
2022-11-22T22:35:16.526Z,100706.31
2022-11-22T22:37:46.686Z,100688.13
2022-11-22T22:40:16.994Z,100665.38
2022-11-22T22:42:47.393Z,100701.88
2022-11-22T22:45:17.611Z,100682.84
2022-11-22T22:47:47.700Z,100699.50
2022-11-22T22:50:18.146Z,100686.34
2022-11-22T22:52:48.258Z,100655.16
2022-11-22T22:55:18.518Z,100671.75
2022-11-22T22:57:48.634Z,100652.59
2022-11-22T23:00:19.504Z,100668.16
2022-11-22T23:02:49.750Z,100681.25
2022-11-22T23:05:20.394Z,100679.41
2022-11-22T23:07:50.480Z,100664.53
2022-11-22T23:10:20.688Z,100637.63
2022-11-22T23:12:50.778Z,100689.81
2022-11-22T23:15:38.088Z,100645.56
2022-11-22T23:18:11.305Z,100674.97
2022-11-22T23:20:41.421Z,100659.34
2022-11-22T23:23:11.587Z,100656.66
2022-11-22T23:25:41.777Z,100676.63
2022-11-22T23:28:12.640Z,100694.84
2022-11-22T23:30:42.872Z,100694.03
2022-11-22T23:33:13.631Z,100668.88
2022-11-22T23:35:43.808Z,100647.22
2022-11-22T23:38:13.953Z,100650.75
2022-11-22T23:40:44.104Z,100655.19
2022-11-22T23:43:14.215Z,100636.88
2022-11-22T23:45:47.199Z,100655.13
2022-11-22T23:48:17.683Z,100661.41
2022-11-22T23:50:47.949Z,100676.84
2022-11-22T23:53:18.106Z,100677.69
2022-11-22T23:55:48.259Z,100693.19
2022-11-22T23:58:18.511Z,100687.19
